sensor_id;sensor_type;location;lat;lon;timestamp;P1;durP1;ratioP1;P2;durP2;ratioP2
13112;SDS011;6622;49.752;6.100;2022-11-12T00:02:17;10.63;;;4.43;;
13112;SDS011;6622;49.752;6.100;2022-11-12T00:04:44;9.50;;;5.13;;
13112;SDS011;6622;49.752;6.100;2022-11-12T00:07:11;12.90;;;4.30;;
13112;SDS011;6622;49.752;6.100;2022-11-12T00:09:37;13.47;;;4.77;;
13112;SDS011;6622;49.752;6.100;2022-11-12T00:12:04;9.07;;;4.47;;
13112;SDS011;6622;49.752;6.100;2022-11-12T00:14:31;11.13;;;4.57;;
13112;SDS011;6622;49.752;6.100;2022-11-12T00:16:57;9.40;;;4.67;;
13112;SDS011;6622;49.752;6.100;2022-11-12T00:19:24;13.15;;;7.47;;
13112;SDS011;6622;49.752;6.100;2022-11-12T00:21:50;12.73;;;6.07;;
13112;SDS011;6622;49.752;6.100;2022-11-12T00:24:17;9.90;;;5.17;;
13112;SDS011;6622;49.752;6.100;2022-11-12T00:26:44;9.20;;;5.33;;
13112;SDS011;6622;49.752;6.100;2022-11-12T00:29:10;10.87;;;4.87;;
13112;SDS011;6622;49.752;6.100;2022-11-12T00:31:37;10.37;;;5.23;;
13112;SDS011;6622;49.752;6.100;2022-11-12T00:34:04;14.57;;;6.43;;
13112;SDS011;6622;49.752;6.100;2022-11-12T00:36:30;20.20;;;8.70;;
13112;SDS011;6622;49.752;6.100;2022-11-12T00:38:57;11.80;;;6.00;;
13112;SDS011;6622;49.752;6.100;2022-11-12T00:41:23;18.07;;;5.77;;
13112;SDS011;6622;49.752;6.100;2022-11-12T00:43:50;11.13;;;5.50;;
13112;SDS011;6622;49.752;6.100;2022-11-12T00:46:17;11.07;;;5.53;;
13112;SDS011;6622;49.752;6.100;2022-11-12T00:48:43;10.40;;;5.10;;
13112;SDS011;6622;49.752;6.100;2022-11-12T00:51:10;10.17;;;5.10;;
13112;SDS011;6622;49.752;6.100;2022-11-12T00:53:37;9.10;;;4.80;;
13112;SDS011;6622;49.752;6.100;2022-11-12T00:56:04;10.00;;;4.80;;
13112;SDS011;6622;49.752;6.100;2022-11-12T00:58:30;9.53;;;5.00;;
13112;SDS011;6622;49.752;6.100;2022-11-12T01:00:57;9.93;;;5.00;;
13112;SDS011;6622;49.752;6.100;2022-11-12T01:03:25;10.40;;;4.83;;
13112;SDS011;6622;49.752;6.100;2022-11-12T01:05:50;10.67;;;5.03;;
13112;SDS011;6622;49.752;6.100;2022-11-12T01:08:16;12.03;;;5.00;;
13112;SDS011;6622;49.752;6.100;2022-11-12T01:10:44;12.67;;;5.20;;
13112;SDS011;6622;49.752;6.100;2022-11-12T01:13:10;9.43;;;4.87;;
13112;SDS011;6622;49.752;6.100;2022-11-12T01:15:40;9.43;;;4.97;;
13112;SDS011;6622;49.752;6.100;2022-11-12T01:18:07;9.20;;;4.33;;
13112;SDS011;6622;49.752;6.100;2022-11-12T01:20:35;15.32;;;7.55;;
13112;SDS011;6622;49.752;6.100;2022-11-12T01:23:00;13.88;;;6.75;;
13112;SDS011;6622;49.752;6.100;2022-11-12T01:25:26;10.60;;;4.83;;
13112;SDS011;6622;49.752;6.100;2022-11-12T01:27:53;9.27;;;5.03;;
13112;SDS011;6622;49.752;6.100;2022-11-12T01:30:20;8.77;;;3.87;;
13112;SDS011;6622;49.752;6.100;2022-11-12T01:32:47;7.20;;;4.17;;
13112;SDS011;6622;49.752;6.100;2022-11-12T01:35:14;6.20;;;3.33;;
13112;SDS011;6622;49.752;6.100;2022-11-12T01:37:40;9.73;;;5.75;;
13112;SDS011;6622;49.752;6.100;2022-11-12T01:40:07;9.53;;;4.53;;
13112;SDS011;6622;49.752;6.100;2022-11-12T01:42:34;7.40;;;4.10;;
13112;SDS011;6622;49.752;6.100;2022-11-12T01:45:00;6.27;;;3.10;;
13112;SDS011;6622;49.752;6.100;2022-11-12T01:47:31;4.23;;;2.80;;
13112;SDS011;6622;49.752;6.100;2022-11-12T01:52:55;4.93;;;2.67;;
13112;SDS011;6622;49.752;6.100;2022-11-12T01:55:25;3.90;;;2.63;;
13112;SDS011;6622;49.752;6.100;2022-11-12T01:57:52;4.30;;;2.40;;
13112;SDS011;6622;49.752;6.100;2022-11-12T02:00:17;3.53;;;1.93;;
13112;SDS011;6622;49.752;6.100;2022-11-12T02:02:52;3.93;;;2.27;;
13112;SDS011;6622;49.752;6.100;2022-11-12T02:05:10;5.70;;;2.50;;
13112;SDS011;6622;49.752;6.100;2022-11-12T02:07:38;6.85;;;3.95;;
13112;SDS011;6622;49.752;6.100;2022-11-12T02:10:04;6.28;;;3.90;;
13112;SDS011;6622;49.752;6.100;2022-11-12T02:12:30;4.13;;;2.67;;
13112;SDS011;6622;49.752;6.100;2022-11-12T02:15:14;5.97;;;2.53;;
13112;SDS011;6622;49.752;6.100;2022-11-12T02:17:41;4.87;;;2.33;;
13112;SDS011;6622;49.752;6.100;2022-11-12T02:22:46;4.90;;;2.30;;
13112;SDS011;6622;49.752;6.100;2022-11-12T02:25:13;3.67;;;2.30;;
13112;SDS011;6622;49.752;6.100;2022-11-12T02:27:39;3.80;;;2.13;;
13112;SDS011;6622;49.752;6.100;2022-11-12T02:30:06;5.80;;;2.67;;
13112;SDS011;6622;49.752;6.100;2022-11-12T02:32:32;6.67;;;2.90;;
13112;SDS011;6622;49.752;6.100;2022-11-12T02:34:59;5.30;;;2.60;;
13112;SDS011;6622;49.752;6.100;2022-11-12T02:37:26;3.40;;;2.27;;
13112;SDS011;6622;49.752;6.100;2022-11-12T02:39:52;5.10;;;2.87;;
13112;SDS011;6622;49.752;6.100;2022-11-12T02:42:19;4.57;;;2.23;;
13112;SDS011;6622;49.752;6.100;2022-11-12T02:44:45;6.00;;;3.10;;
13112;SDS011;6622;49.752;6.100;2022-11-12T02:47:12;4.83;;;2.83;;
13112;SDS011;6622;49.752;6.100;2022-11-12T02:49:39;4.57;;;2.77;;
13112;SDS011;6622;49.752;6.100;2022-11-12T02:52:05;6.13;;;2.80;;
13112;SDS011;6622;49.752;6.100;2022-11-12T02:54:32;3.47;;;2.03;;
13112;SDS011;6622;49.752;6.100;2022-11-12T02:56:59;4.73;;;2.70;;
13112;SDS011;6622;49.752;6.100;2022-11-12T02:59:25;5.00;;;2.73;;
13112;SDS011;6622;49.752;6.100;2022-11-12T03:01:52;5.23;;;2.87;;
13112;SDS011;6622;49.752;6.100;2022-11-12T03:04:18;6.20;;;3.27;;
13112;SDS011;6622;49.752;6.100;2022-11-12T03:06:45;6.77;;;3.47;;
13112;SDS011;6622;49.752;6.100;2022-11-12T03:09:12;5.00;;;2.73;;
13112;SDS011;6622;49.752;6.100;2022-11-12T03:11:38;7.15;;;4.37;;
13112;SDS011;6622;49.752;6.100;2022-11-12T03:14:05;4.80;;;2.97;;
13112;SDS011;6622;49.752;6.100;2022-11-12T03:16:32;5.70;;;2.90;;
13112;SDS011;6622;49.752;6.100;2022-11-12T03:18:59;5.20;;;2.53;;
13112;SDS011;6622;49.752;6.100;2022-11-12T03:21:26;4.97;;;2.70;;
13112;SDS011;6622;49.752;6.100;2022-11-12T03:23:53;10.90;;;3.00;;
13112;SDS011;6622;49.752;6.100;2022-11-12T03:26:20;5.20;;;2.83;;
13112;SDS011;6622;49.752;6.100;2022-11-12T03:28:46;3.97;;;1.93;;
13112;SDS011;6622;49.752;6.100;2022-11-12T03:31:14;4.97;;;2.73;;
13112;SDS011;6622;49.752;6.100;2022-11-12T03:33:40;4.87;;;2.43;;
13112;SDS011;6622;49.752;6.100;2022-11-12T03:36:07;7.12;;;4.30;;
13112;SDS011;6622;49.752;6.100;2022-11-12T03:38:33;4.03;;;2.73;;
13112;SDS011;6622;49.752;6.100;2022-11-12T03:41:00;7.90;;;3.17;;
13112;SDS011;6622;49.752;6.100;2022-11-12T03:43:27;4.80;;;2.83;;
13112;SDS011;6622;49.752;6.100;2022-11-12T03:45:53;5.10;;;2.73;;
13112;SDS011;6622;49.752;6.100;2022-11-12T03:48:20;6.47;;;3.87;;
13112;SDS011;6622;49.752;6.100;2022-11-12T03:50:47;3.07;;;2.10;;
13112;SDS011;6622;49.752;6.100;2022-11-12T03:53:13;4.07;;;2.53;;
13112;SDS011;6622;49.752;6.100;2022-11-12T03:55:41;6.53;;;3.17;;
13112;SDS011;6622;49.752;6.100;2022-11-12T03:58:07;6.27;;;2.60;;
13112;SDS011;6622;49.752;6.100;2022-11-12T04:00:34;6.53;;;3.03;;
13112;SDS011;6622;49.752;6.100;2022-11-12T04:03:00;6.22;;;3.90;;
13112;SDS011;6622;49.752;6.100;2022-11-12T04:05:27;6.13;;;3.40;;
13112;SDS011;6622;49.752;6.100;2022-11-12T04:08:13;4.03;;;2.40;;
13112;SDS011;6622;49.752;6.100;2022-11-12T04:10:59;2.90;;;1.87;;
13112;SDS011;6622;49.752;6.100;2022-11-12T04:13:27;4.13;;;2.33;;
13112;SDS011;6622;49.752;6.100;2022-11-12T04:15:57;4.27;;;2.13;;
13112;SDS011;6622;49.752;6.100;2022-11-12T04:18:44;4.67;;;2.23;;
13112;SDS011;6622;49.752;6.100;2022-11-12T04:21:35;3.70;;;2.00;;
13112;SDS011;6622;49.752;6.100;2022-11-12T04:24:16;4.23;;;2.10;;
13112;SDS011;6622;49.752;6.100;2022-11-12T04:27:04;2.90;;;2.07;;
13112;SDS011;6622;49.752;6.100;2022-11-12T04:29:31;3.63;;;1.97;;
13112;SDS011;6622;49.752;6.100;2022-11-12T04:32:15;3.90;;;2.20;;
13112;SDS011;6622;49.752;6.100;2022-11-12T04:34:42;2.77;;;1.70;;
13112;SDS011;6622;49.752;6.100;2022-11-12T04:37:09;3.10;;;2.20;;
13112;SDS011;6622;49.752;6.100;2022-11-12T04:39:35;4.70;;;3.15;;
13112;SDS011;6622;49.752;6.100;2022-11-12T04:42:02;3.87;;;2.93;;
13112;SDS011;6622;49.752;6.100;2022-11-12T04:44:46;6.03;;;2.50;;
13112;SDS011;6622;49.752;6.100;2022-11-12T04:47:22;2.70;;;2.23;;
13112;SDS011;6622;49.752;6.100;2022-11-12T04:49:48;5.80;;;2.30;;
13112;SDS011;6622;49.752;6.100;2022-11-12T04:52:15;3.77;;;2.30;;
13112;SDS011;6622;49.752;6.100;2022-11-12T04:54:42;2.53;;;2.00;;
13112;SDS011;6622;49.752;6.100;2022-11-12T04:57:08;4.27;;;2.50;;
13112;SDS011;6622;49.752;6.100;2022-11-12T04:59:36;2.93;;;1.87;;
13112;SDS011;6622;49.752;6.100;2022-11-12T05:02:02;2.43;;;1.90;;
13112;SDS011;6622;49.752;6.100;2022-11-12T05:04:29;4.03;;;2.50;;
13112;SDS011;6622;49.752;6.100;2022-11-12T05:06:57;2.83;;;2.17;;
13112;SDS011;6622;49.752;6.100;2022-11-12T05:09:25;4.60;;;1.97;;
13112;SDS011;6622;49.752;6.100;2022-11-12T05:11:51;3.87;;;1.90;;
13112;SDS011;6622;49.752;6.100;2022-11-12T05:14:17;4.20;;;2.10;;
13112;SDS011;6622;49.752;6.100;2022-11-12T05:16:44;2.73;;;1.60;;
13112;SDS011;6622;49.752;6.100;2022-11-12T05:19:11;3.00;;;1.87;;
13112;SDS011;6622;49.752;6.100;2022-11-12T05:21:38;4.07;;;2.13;;
13112;SDS011;6622;49.752;6.100;2022-11-12T05:24:23;4.20;;;2.00;;
13112;SDS011;6622;49.752;6.100;2022-11-12T05:26:49;5.17;;;1.90;;
13112;SDS011;6622;49.752;6.100;2022-11-12T05:29:16;8.68;;;3.83;;
13112;SDS011;6622;49.752;6.100;2022-11-12T05:31:43;4.87;;;3.30;;
13112;SDS011;6622;49.752;6.100;2022-11-12T05:34:09;3.77;;;2.37;;
13112;SDS011;6622;49.752;6.100;2022-11-12T05:36:37;3.63;;;2.10;;
13112;SDS011;6622;49.752;6.100;2022-11-12T05:39:03;4.70;;;2.43;;
13112;SDS011;6622;49.752;6.100;2022-11-12T05:41:30;4.40;;;2.27;;
13112;SDS011;6622;49.752;6.100;2022-11-12T05:43:57;4.07;;;1.83;;
13112;SDS011;6622;49.752;6.100;2022-11-12T05:46:24;4.00;;;2.00;;
13112;SDS011;6622;49.752;6.100;2022-11-12T05:48:50;3.63;;;1.90;;
13112;SDS011;6622;49.752;6.100;2022-11-12T05:51:18;3.60;;;1.83;;
13112;SDS011;6622;49.752;6.100;2022-11-12T05:53:44;3.50;;;1.90;;
13112;SDS011;6622;49.752;6.100;2022-11-12T05:56:11;4.07;;;2.50;;
13112;SDS011;6622;49.752;6.100;2022-11-12T05:58:38;3.73;;;1.90;;
13112;SDS011;6622;49.752;6.100;2022-11-12T06:01:05;3.13;;;1.73;;
13112;SDS011;6622;49.752;6.100;2022-11-12T06:03:32;3.93;;;2.13;;
13112;SDS011;6622;49.752;6.100;2022-11-12T06:05:59;3.67;;;2.00;;
13112;SDS011;6622;49.752;6.100;2022-11-12T06:08:26;3.77;;;2.17;;
13112;SDS011;6622;49.752;6.100;2022-11-12T06:10:53;3.40;;;1.80;;
13112;SDS011;6622;49.752;6.100;2022-11-12T06:13:20;4.13;;;2.40;;
13112;SDS011;6622;49.752;6.100;2022-11-12T06:15:46;4.63;;;2.50;;
13112;SDS011;6622;49.752;6.100;2022-11-12T06:18:14;4.20;;;2.47;;
13112;SDS011;6622;49.752;6.100;2022-11-12T06:20:40;3.20;;;2.20;;
13112;SDS011;6622;49.752;6.100;2022-11-12T06:23:07;3.87;;;2.30;;
13112;SDS011;6622;49.752;6.100;2022-11-12T06:25:34;2.97;;;1.97;;
13112;SDS011;6622;49.752;6.100;2022-11-12T06:28:01;3.27;;;2.10;;
13112;SDS011;6622;49.752;6.100;2022-11-12T06:30:27;4.27;;;2.20;;
13112;SDS011;6622;49.752;6.100;2022-11-12T06:32:55;2.80;;;1.80;;
13112;SDS011;6622;49.752;6.100;2022-11-12T06:35:21;3.37;;;1.73;;
13112;SDS011;6622;49.752;6.100;2022-11-12T06:37:48;4.67;;;1.80;;
13112;SDS011;6622;49.752;6.100;2022-11-12T06:40:15;3.90;;;2.43;;
13112;SDS011;6622;49.752;6.100;2022-11-12T06:42:42;2.90;;;1.77;;
13112;SDS011;6622;49.752;6.100;2022-11-12T06:45:09;2.40;;;1.70;;
13112;SDS011;6622;49.752;6.100;2022-11-12T06:47:36;4.13;;;2.13;;
13112;SDS011;6622;49.752;6.100;2022-11-12T06:50:03;2.27;;;1.63;;
13112;SDS011;6622;49.752;6.100;2022-11-12T06:52:29;3.80;;;2.20;;
13112;SDS011;6622;49.752;6.100;2022-11-12T06:54:56;4.10;;;2.50;;
13112;SDS011;6622;49.752;6.100;2022-11-12T06:57:23;7.18;;;4.12;;
13112;SDS011;6622;49.752;6.100;2022-11-12T06:59:49;5.37;;;3.20;;
13112;SDS011;6622;49.752;6.100;2022-11-12T07:02:16;4.13;;;2.20;;
13112;SDS011;6622;49.752;6.100;2022-11-12T07:04:43;3.97;;;2.10;;
13112;SDS011;6622;49.752;6.100;2022-11-12T07:07:10;2.27;;;1.63;;
13112;SDS011;6622;49.752;6.100;2022-11-12T07:09:37;2.60;;;1.63;;
13112;SDS011;6622;49.752;6.100;2022-11-12T07:12:04;3.37;;;1.90;;
13112;SDS011;6622;49.752;6.100;2022-11-12T07:14:31;6.07;;;1.73;;
13112;SDS011;6622;49.752;6.100;2022-11-12T07:16:57;3.07;;;1.70;;
13112;SDS011;6622;49.752;6.100;2022-11-12T07:19:24;4.20;;;2.80;;
13112;SDS011;6622;49.752;6.100;2022-11-12T07:21:50;2.97;;;2.03;;
13112;SDS011;6622;49.752;6.100;2022-11-12T07:24:17;3.00;;;2.00;;
13112;SDS011;6622;49.752;6.100;2022-11-12T07:26:44;3.17;;;1.90;;
13112;SDS011;6622;49.752;6.100;2022-11-12T07:29:11;2.93;;;1.60;;
13112;SDS011;6622;49.752;6.100;2022-11-12T07:31:38;2.77;;;1.90;;
13112;SDS011;6622;49.752;6.100;2022-11-12T07:34:04;5.50;;;2.23;;
13112;SDS011;6622;49.752;6.100;2022-11-12T07:36:31;2.90;;;1.67;;
13112;SDS011;6622;49.752;6.100;2022-11-12T07:38:58;2.77;;;1.67;;
13112;SDS011;6622;49.752;6.100;2022-11-12T07:41:24;2.37;;;1.60;;
13112;SDS011;6622;49.752;6.100;2022-11-12T07:43:51;1.93;;;1.47;;
13112;SDS011;6622;49.752;6.100;2022-11-12T07:46:21;3.27;;;1.83;;
13112;SDS011;6622;49.752;6.100;2022-11-12T07:48:50;2.57;;;1.67;;
13112;SDS011;6622;49.752;6.100;2022-11-12T07:51:20;4.57;;;1.63;;
13112;SDS011;6622;49.752;6.100;2022-11-12T07:53:44;3.63;;;1.90;;
13112;SDS011;6622;49.752;6.100;2022-11-12T07:56:11;1.87;;;1.43;;
13112;SDS011;6622;49.752;6.100;2022-11-12T07:58:38;3.50;;;1.83;;
13112;SDS011;6622;49.752;6.100;2022-11-12T08:01:08;4.63;;;1.67;;
13112;SDS011;6622;49.752;6.100;2022-11-12T08:03:37;3.80;;;2.10;;
13112;SDS011;6622;49.752;6.100;2022-11-12T08:06:03;2.67;;;1.90;;
13112;SDS011;6622;49.752;6.100;2022-11-12T08:08:31;3.23;;;1.53;;
13112;SDS011;6622;49.752;6.100;2022-11-12T08:10:58;1.77;;;1.57;;
13112;SDS011;6622;49.752;6.100;2022-11-12T08:13:25;5.80;;;2.03;;
13112;SDS011;6622;49.752;6.100;2022-11-12T08:15:51;3.03;;;2.00;;
13112;SDS011;6622;49.752;6.100;2022-11-12T08:18:18;2.83;;;2.00;;
13112;SDS011;6622;49.752;6.100;2022-11-12T08:20:45;2.37;;;1.50;;
13112;SDS011;6622;49.752;6.100;2022-11-12T08:23:12;2.23;;;1.70;;
13112;SDS011;6622;49.752;6.100;2022-11-12T08:25:39;2.57;;;1.90;;
13112;SDS011;6622;49.752;6.100;2022-11-12T08:28:06;2.50;;;1.83;;
13112;SDS011;6622;49.752;6.100;2022-11-12T08:30:33;3.03;;;1.80;;
13112;SDS011;6622;49.752;6.100;2022-11-12T08:33:04;3.37;;;2.10;;
13112;SDS011;6622;49.752;6.100;2022-11-12T08:35:29;2.77;;;1.93;;
13112;SDS011;6622;49.752;6.100;2022-11-12T08:37:59;2.87;;;1.57;;
13112;SDS011;6622;49.752;6.100;2022-11-12T08:40:29;4.60;;;2.27;;
13112;SDS011;6622;49.752;6.100;2022-11-12T08:42:58;5.27;;;2.33;;
13112;SDS011;6622;49.752;6.100;2022-11-12T08:45:21;7.20;;;4.67;;
13112;SDS011;6622;49.752;6.100;2022-11-12T08:47:48;2.70;;;2.30;;
13112;SDS011;6622;49.752;6.100;2022-11-12T08:50:15;3.97;;;2.03;;
13112;SDS011;6622;49.752;6.100;2022-11-12T08:52:42;3.60;;;1.90;;
13112;SDS011;6622;49.752;6.100;2022-11-12T08:55:09;2.70;;;1.70;;
13112;SDS011;6622;49.752;6.100;2022-11-12T08:57:42;2.00;;;1.50;;
13112;SDS011;6622;49.752;6.100;2022-11-12T09:00:11;2.23;;;1.70;;
13112;SDS011;6622;49.752;6.100;2022-11-12T09:02:39;2.93;;;1.57;;
13112;SDS011;6622;49.752;6.100;2022-11-12T09:05:05;3.23;;;1.63;;
13112;SDS011;6622;49.752;6.100;2022-11-12T09:07:33;5.03;;;2.03;;
13112;SDS011;6622;49.752;6.100;2022-11-12T09:09:59;2.83;;;2.00;;
13112;SDS011;6622;49.752;6.100;2022-11-12T09:12:26;1.90;;;1.50;;
13112;SDS011;6622;49.752;6.100;2022-11-12T09:14:53;3.77;;;2.30;;
13112;SDS011;6622;49.752;6.100;2022-11-12T09:17:19;2.73;;;1.60;;
13112;SDS011;6622;49.752;6.100;2022-11-12T09:19:46;3.17;;;2.20;;
13112;SDS011;6622;49.752;6.100;2022-11-12T09:22:13;3.23;;;2.10;;
13112;SDS011;6622;49.752;6.100;2022-11-12T09:24:40;3.20;;;1.63;;
13112;SDS011;6622;49.752;6.100;2022-11-12T09:27:07;2.77;;;2.00;;
13112;SDS011;6622;49.752;6.100;2022-11-12T09:29:33;4.07;;;2.30;;
13112;SDS011;6622;49.752;6.100;2022-11-12T09:32:00;2.67;;;1.73;;
13112;SDS011;6622;49.752;6.100;2022-11-12T09:34:27;3.53;;;2.27;;
13112;SDS011;6622;49.752;6.100;2022-11-12T09:36:54;4.40;;;2.40;;
13112;SDS011;6622;49.752;6.100;2022-11-12T09:39:20;3.97;;;2.40;;
13112;SDS011;6622;49.752;6.100;2022-11-12T09:41:48;3.37;;;2.20;;
13112;SDS011;6622;49.752;6.100;2022-11-12T09:44:16;3.10;;;2.30;;
13112;SDS011;6622;49.752;6.100;2022-11-12T09:46:43;3.83;;;2.33;;
13112;SDS011;6622;49.752;6.100;2022-11-12T09:51:37;3.80;;;2.47;;
13112;SDS011;6622;49.752;6.100;2022-11-12T09:54:11;4.67;;;2.77;;
13112;SDS011;6622;49.752;6.100;2022-11-12T09:56:38;4.07;;;2.40;;
13112;SDS011;6622;49.752;6.100;2022-11-12T09:59:08;4.20;;;2.77;;
13112;SDS011;6622;49.752;6.100;2022-11-12T10:01:44;3.57;;;2.40;;
13112;SDS011;6622;49.752;6.100;2022-11-12T10:07:05;3.77;;;2.50;;
13112;SDS011;6622;49.752;6.100;2022-11-12T10:09:50;3.57;;;2.47;;
13112;SDS011;6622;49.752;6.100;2022-11-12T10:15:09;4.47;;;3.20;;
13112;SDS011;6622;49.752;6.100;2022-11-12T10:18:19;5.50;;;2.90;;
13112;SDS011;6622;49.752;6.100;2022-11-12T10:21:13;4.83;;;2.80;;
13112;SDS011;6622;49.752;6.100;2022-11-12T10:23:25;6.03;;;2.87;;
13112;SDS011;6622;49.752;6.100;2022-11-12T10:25:51;3.10;;;2.37;;
13112;SDS011;6622;49.752;6.100;2022-11-12T10:28:27;4.10;;;2.40;;
13112;SDS011;6622;49.752;6.100;2022-11-12T10:30:54;3.90;;;2.80;;
13112;SDS011;6622;49.752;6.100;2022-11-12T10:33:20;4.43;;;2.90;;
13112;SDS011;6622;49.752;6.100;2022-11-12T10:35:46;4.87;;;2.77;;
13112;SDS011;6622;49.752;6.100;2022-11-12T10:38:24;4.07;;;3.07;;
13112;SDS011;6622;49.752;6.100;2022-11-12T10:40:41;3.40;;;2.47;;
13112;SDS011;6622;49.752;6.100;2022-11-12T10:45:43;4.97;;;2.83;;
13112;SDS011;6622;49.752;6.100;2022-11-12T10:48:23;5.73;;;3.33;;
13112;SDS011;6622;49.752;6.100;2022-11-12T10:50:49;6.47;;;3.13;;
13112;SDS011;6622;49.752;6.100;2022-11-12T10:53:27;3.13;;;2.40;;
13112;SDS011;6622;49.752;6.100;2022-11-12T10:55:56;4.83;;;3.27;;
13112;SDS011;6622;49.752;6.100;2022-11-12T10:58:24;3.80;;;2.83;;
13112;SDS011;6622;49.752;6.100;2022-11-12T11:03:28;4.10;;;2.77;;
13112;SDS011;6622;49.752;6.100;2022-11-12T11:05:55;6.10;;;2.93;;
13112;SDS011;6622;49.752;6.100;2022-11-12T11:08:39;4.27;;;2.70;;
13112;SDS011;6622;49.752;6.100;2022-11-12T11:13:48;4.33;;;2.50;;
13112;SDS011;6622;49.752;6.100;2022-11-12T11:16:21;3.37;;;2.43;;
13112;SDS011;6622;49.752;6.100;2022-11-12T11:18:53;3.70;;;2.70;;
13112;SDS011;6622;49.752;6.100;2022-11-12T11:27:25;4.68;;;3.08;;
13112;SDS011;6622;49.752;6.100;2022-11-12T11:29:55;2.80;;;2.30;;
13112;SDS011;6622;49.752;6.100;2022-11-12T11:32:24;3.70;;;2.40;;
13112;SDS011;6622;49.752;6.100;2022-11-12T11:35:01;2.90;;;2.13;;
13112;SDS011;6622;49.752;6.100;2022-11-12T11:37:43;5.18;;;3.37;;
13112;SDS011;6622;49.752;6.100;2022-11-12T11:40:23;6.15;;;3.50;;
13112;SDS011;6622;49.752;6.100;2022-11-12T11:43:08;4.17;;;2.73;;
13112;SDS011;6622;49.752;6.100;2022-11-12T11:45:34;3.73;;;2.67;;
13112;SDS011;6622;49.752;6.100;2022-11-12T11:48:15;4.30;;;3.03;;
13112;SDS011;6622;49.752;6.100;2022-11-12T11:50:42;5.30;;;3.20;;
13112;SDS011;6622;49.752;6.100;2022-11-12T11:53:16;4.60;;;3.07;;
13112;SDS011;6622;49.752;6.100;2022-11-12T11:55:52;6.00;;;3.20;;
13112;SDS011;6622;49.752;6.100;2022-11-12T11:58:17;4.23;;;2.77;;
13112;SDS011;6622;49.752;6.100;2022-11-12T12:06:15;3.80;;;2.93;;
13112;SDS011;6622;49.752;6.100;2022-11-12T12:09:02;4.23;;;3.03;;
13112;SDS011;6622;49.752;6.100;2022-11-12T12:14:12;6.30;;;2.70;;
13112;SDS011;6622;49.752;6.100;2022-11-12T12:21:57;4.27;;;2.83;;
13112;SDS011;6622;49.752;6.100;2022-11-12T12:24:28;4.73;;;3.07;;
13112;SDS011;6622;49.752;6.100;2022-11-12T12:26:58;4.20;;;2.50;;
13112;SDS011;6622;49.752;6.100;2022-11-12T12:29:27;3.13;;;2.40;;
13112;SDS011;6622;49.752;6.100;2022-11-12T12:32:06;4.50;;;2.87;;
13112;SDS011;6622;49.752;6.100;2022-11-12T12:34:32;4.90;;;3.33;;
13112;SDS011;6622;49.752;6.100;2022-11-12T12:37:01;5.33;;;3.30;;
13112;SDS011;6622;49.752;6.100;2022-11-12T12:39:35;3.83;;;2.67;;
13112;SDS011;6622;49.752;6.100;2022-11-12T12:42:30;3.63;;;2.70;;
13112;SDS011;6622;49.752;6.100;2022-11-12T12:44:57;4.30;;;2.90;;
13112;SDS011;6622;49.752;6.100;2022-11-12T12:47:27;5.07;;;3.13;;
13112;SDS011;6622;49.752;6.100;2022-11-12T12:49:54;5.57;;;4.37;;
13112;SDS011;6622;49.752;6.100;2022-11-12T12:52:21;5.70;;;3.00;;
13112;SDS011;6622;49.752;6.100;2022-11-12T12:57:36;4.30;;;3.03;;
13112;SDS011;6622;49.752;6.100;2022-11-12T13:02:50;4.43;;;2.90;;
13112;SDS011;6622;49.752;6.100;2022-11-12T13:05:23;3.00;;;2.40;;
13112;SDS011;6622;49.752;6.100;2022-11-12T13:07:50;8.97;;;3.17;;
13112;SDS011;6622;49.752;6.100;2022-11-12T13:15:44;4.57;;;2.90;;
13112;SDS011;6622;49.752;6.100;2022-11-12T13:18:07;4.50;;;2.90;;
13112;SDS011;6622;49.752;6.100;2022-11-12T13:20:35;5.17;;;3.00;;
13112;SDS011;6622;49.752;6.100;2022-11-12T13:23:00;5.37;;;3.03;;
13112;SDS011;6622;49.752;6.100;2022-11-12T13:25:29;4.13;;;3.27;;
13112;SDS011;6622;49.752;6.100;2022-11-12T13:28:04;4.67;;;2.93;;
13112;SDS011;6622;49.752;6.100;2022-11-12T13:32:57;6.30;;;3.40;;
13112;SDS011;6622;49.752;6.100;2022-11-12T13:48:38;5.20;;;3.53;;
13112;SDS011;6622;49.752;6.100;2022-11-12T13:51:05;4.50;;;3.17;;
13112;SDS011;6622;49.752;6.100;2022-11-12T13:53:32;5.57;;;3.40;;
13112;SDS011;6622;49.752;6.100;2022-11-12T13:55:59;4.40;;;3.20;;
13112;SDS011;6622;49.752;6.100;2022-11-12T13:58:26;4.30;;;2.93;;
13112;SDS011;6622;49.752;6.100;2022-11-12T14:00:55;5.50;;;3.30;;
13112;SDS011;6622;49.752;6.100;2022-11-12T14:03:21;5.50;;;3.70;;
13112;SDS011;6622;49.752;6.100;2022-11-12T14:05:48;4.60;;;3.53;;
13112;SDS011;6622;49.752;6.100;2022-11-12T14:08:26;6.93;;;4.93;;
13112;SDS011;6622;49.752;6.100;2022-11-12T14:13:33;7.80;;;5.32;;
13112;SDS011;6622;49.752;6.100;2022-11-12T14:16:17;7.37;;;5.30;;
13112;SDS011;6622;49.752;6.100;2022-11-12T14:19:06;7.13;;;4.40;;
13112;SDS011;6622;49.752;6.100;2022-11-12T14:21:40;6.03;;;4.10;;
13112;SDS011;6622;49.752;6.100;2022-11-12T14:24:10;4.77;;;3.50;;
13112;SDS011;6622;49.752;6.100;2022-11-12T14:26:40;6.63;;;3.47;;
13112;SDS011;6622;49.752;6.100;2022-11-12T14:29:06;7.23;;;3.53;;
13112;SDS011;6622;49.752;6.100;2022-11-12T14:31:32;5.93;;;3.93;;
13112;SDS011;6622;49.752;6.100;2022-11-12T14:36:47;7.40;;;4.27;;
13112;SDS011;6622;49.752;6.100;2022-11-12T14:39:13;5.47;;;3.63;;
13112;SDS011;6622;49.752;6.100;2022-11-12T14:41:41;4.63;;;3.70;;
13112;SDS011;6622;49.752;6.100;2022-11-12T14:44:13;10.30;;;4.40;;
13112;SDS011;6622;49.752;6.100;2022-11-12T14:46:49;7.27;;;4.33;;
13112;SDS011;6622;49.752;6.100;2022-11-12T14:49:26;6.17;;;4.00;;
13112;SDS011;6622;49.752;6.100;2022-11-12T14:51:56;6.40;;;3.93;;
13112;SDS011;6622;49.752;6.100;2022-11-12T14:54:26;9.50;;;5.43;;
13112;SDS011;6622;49.752;6.100;2022-11-12T14:56:53;10.77;;;5.77;;
13112;SDS011;6622;49.752;6.100;2022-11-12T14:59:19;11.70;;;7.12;;
13112;SDS011;6622;49.752;6.100;2022-11-12T15:04:42;8.13;;;4.93;;
13112;SDS011;6622;49.752;6.100;2022-11-12T15:09:55;10.03;;;6.37;;
13112;SDS011;6622;49.752;6.100;2022-11-12T15:12:23;14.17;;;7.27;;
13112;SDS011;6622;49.752;6.100;2022-11-12T15:14:49;12.63;;;8.98;;
13112;SDS011;6622;49.752;6.100;2022-11-12T15:17:34;11.40;;;7.57;;
13112;SDS011;6622;49.752;6.100;2022-11-12T15:19:58;7.77;;;4.33;;
13112;SDS011;6622;49.752;6.100;2022-11-12T15:22:21;6.93;;;4.83;;
13112;SDS011;6622;49.752;6.100;2022-11-12T15:24:48;5.43;;;3.70;;
13112;SDS011;6622;49.752;6.100;2022-11-12T15:27:34;9.33;;;4.23;;
13112;SDS011;6622;49.752;6.100;2022-11-12T15:30:16;5.67;;;3.17;;
13112;SDS011;6622;49.752;6.100;2022-11-12T15:32:42;4.43;;;3.70;;
13112;SDS011;6622;49.752;6.100;2022-11-12T15:37:51;7.27;;;4.33;;
13112;SDS011;6622;49.752;6.100;2022-11-12T15:40:18;7.70;;;4.30;;
13112;SDS011;6622;49.752;6.100;2022-11-12T15:42:44;7.83;;;3.87;;
13112;SDS011;6622;49.752;6.100;2022-11-12T15:47:37;8.57;;;4.90;;
13112;SDS011;6622;49.752;6.100;2022-11-12T15:50:18;7.87;;;5.23;;
13112;SDS011;6622;49.752;6.100;2022-11-12T15:52:45;9.30;;;4.73;;
13112;SDS011;6622;49.752;6.100;2022-11-12T15:55:12;10.03;;;5.00;;
13112;SDS011;6622;49.752;6.100;2022-11-12T15:57:40;9.50;;;5.40;;
13112;SDS011;6622;49.752;6.100;2022-11-12T16:00:18;9.03;;;4.83;;
13112;SDS011;6622;49.752;6.100;2022-11-12T16:02:45;12.17;;;8.00;;
13112;SDS011;6622;49.752;6.100;2022-11-12T16:05:12;10.80;;;6.33;;
13112;SDS011;6622;49.752;6.100;2022-11-12T16:07:37;11.93;;;8.85;;
13112;SDS011;6622;49.752;6.100;2022-11-12T16:10:04;10.33;;;7.20;;
13112;SDS011;6622;49.752;6.100;2022-11-12T16:12:31;16.67;;;8.70;;
13112;SDS011;6622;49.752;6.100;2022-11-12T16:14:57;21.67;;;12.23;;
13112;SDS011;6622;49.752;6.100;2022-11-12T16:17:24;16.40;;;9.77;;
13112;SDS011;6622;49.752;6.100;2022-11-12T16:19:51;21.10;;;13.75;;
13112;SDS011;6622;49.752;6.100;2022-11-12T16:22:17;20.90;;;12.20;;
13112;SDS011;6622;49.752;6.100;2022-11-12T16:24:44;13.93;;;8.43;;
13112;SDS011;6622;49.752;6.100;2022-11-12T16:27:13;28.63;;;15.27;;
13112;SDS011;6622;49.752;6.100;2022-11-12T16:29:40;9.43;;;7.83;;
13112;SDS011;6622;49.752;6.100;2022-11-12T16:32:10;32.22;;;21.25;;
13112;SDS011;6622;49.752;6.100;2022-11-12T16:34:33;26.85;;;16.90;;